Time;durP1;ratioP1;P1;durP2;ratioP2;P2;SDS_P1;SDS_P2;PMS_P1;PMS_P2;Temp;Humidity;BMP_temperature;BMP_pressure;BME280_temperature;BME280_humidity;BME280_pressure;Samples;Min_cycle;Max_cycle;Signal;HPM_P1;HPM_P2
2023/12/23 00:01:34;;;;;;;3.07;1.20;;;8.20;1.00;;;;;;6278032;22;20415;-85
2023/12/23 00:04:01;;;;;;;2.10;0.97;;;8.20;1.00;;;;;;6276195;22;20153;-85
2023/12/23 00:06:26;;;;;;;4.47;1.30;;;8.10;1.00;;;;;;6279455;22;20921;-85
2023/12/23 00:08:52;;;;;;;6.20;1.10;;;8.20;1.00;;;;;;6278086;22;20380;-85
2023/12/23 00:11:17;;;;;;;4.27;1.20;;;8.10;1.00;;;;;;6278682;22;20156;-86
2023/12/23 00:13:43;;;;;;;3.80;1.20;;;8.10;1.00;;;;;;6250779;22;20689;-85
2023/12/23 00:16:08;;;;;;;6.57;1.23;;;8.10;1.00;;;;;;6250957;22;20660;-86
2023/12/23 00:18:34;;;;;;;4.50;1.30;;;8.10;1.00;;;;;;6277280;22;20167;-84
2023/12/23 00:20:59;;;;;;;5.10;1.13;;;8.10;1.00;;;;;;6275881;22;20159;-85
2023/12/23 00:23:25;;;;;;;5.60;1.37;;;8.20;1.00;;;;;;6248491;22;20601;-84
2023/12/23 00:25:50;;;;;;;4.83;1.07;;;8.20;1.00;;;;;;6276542;22;20180;-84
2023/12/23 00:28:16;;;;;;;5.50;1.80;;;8.20;1.00;;;;;;6276409;22;20172;-84
2023/12/23 00:30:41;;;;;;;6.00;1.20;;;8.20;1.00;;;;;;6275018;22;20145;-84
2023/12/23 00:33:08;;;;;;;3.80;0.80;;;8.20;1.00;;;;;;6277647;22;20218;-85
2023/12/23 00:35:33;;;;;;;4.43;1.10;;;8.20;1.00;;;;;;6276461;22;20260;-85
2023/12/23 00:37:59;;;;;;;5.37;1.00;;;8.20;1.00;;;;;;6276659;22;20376;-84
2023/12/23 00:40:24;;;;;;;3.90;1.30;;;8.20;1.00;;;;;;6276203;22;20205;-86
2023/12/23 00:42:50;;;;;;;6.97;1.47;;;8.20;1.00;;;;;;6276660;22;20176;-84
2023/12/23 00:45:15;;;;;;;4.90;1.10;;;8.20;1.00;;;;;;6275438;22;20175;-83
2023/12/23 00:47:41;;;;;;;3.50;1.30;;;8.30;1.00;;;;;;6276288;22;20181;-84
2023/12/23 00:50:07;;;;;;;6.00;1.43;;;8.20;1.00;;;;;;6276663;22;20181;-85
2023/12/23 00:52:33;;;;;;;6.10;1.30;;;8.20;1.00;;;;;;6276435;22;20187;-86
2023/12/23 00:54:58;;;;;;;7.67;1.40;;;8.20;1.00;;;;;;6275942;22;20391;-84
2023/12/23 00:57:24;;;;;;;4.83;1.20;;;8.20;1.00;;;;;;6276025;22;20670;-85
2023/12/23 00:59:49;;;;;;;3.73;1.20;;;8.20;1.00;;;;;;6277099;22;20157;-84
2023/12/23 01:02:15;;;;;;;4.33;1.20;;;8.30;1.00;;;;;;6278092;22;20187;-85
2023/12/23 01:04:41;;;;;;;2.23;1.30;;;8.30;1.00;;;;;;6277757;22;20207;-84
2023/12/23 01:07:06;;;;;;;4.03;1.13;;;8.30;1.00;;;;;;6275496;22;20372;-84
2023/12/23 01:09:32;;;;;;;6.50;1.07;;;8.30;1.00;;;;;;6277585;22;20152;-86
2023/12/23 01:11:57;;;;;;;5.43;1.30;;;8.40;1.00;;;;;;6248773;22;20161;-84
2023/12/23 01:14:23;;;;;;;3.90;1.30;;;8.40;1.00;;;;;;6275907;22;20183;-83
2023/12/23 01:16:48;;;;;;;5.37;2.27;;;8.40;1.00;;;;;;6278158;22;20155;-85
2023/12/23 01:19:14;;;;;;;5.40;1.43;;;8.40;1.00;;;;;;6278467;22;20161;-86
2023/12/23 01:21:39;;;;;;;8.27;1.83;;;8.40;1.00;;;;;;6277949;22;20534;-85
2023/12/23 01:24:05;;;;;;;7.27;1.80;;;8.40;1.00;;;;;;6279549;22;20149;-84
2023/12/23 01:26:31;;;;;;;5.07;1.63;;;8.40;1.00;;;;;;6279400;22;20255;-84
2023/12/23 01:29:00;;;;;;;3.70;1.33;;;8.40;1.00;;;;;;6278572;22;20608;-85
2023/12/23 01:31:26;;;;;;;5.07;1.50;;;8.40;1.00;;;;;;6277954;22;20160;-84
2023/12/23 01:33:52;;;;;;;13.23;2.27;;;8.40;1.00;;;;;;6249543;22;20461;-85
2023/12/23 01:36:17;;;;;;;6.87;1.50;;;8.40;1.00;;;;;;6252800;22;20403;-85
2023/12/23 01:38:43;;;;;;;2.83;1.70;;;8.50;1.00;;;;;;6281747;22;20179;-85
2023/12/23 01:41:08;;;;;;;5.30;2.00;;;8.50;1.00;;;;;;6281975;22;20149;-85
2023/12/23 01:43:34;;;;;;;3.80;2.10;;;8.50;1.00;;;;;;6282209;22;20153;-84
2023/12/23 01:46:00;;;;;;;6.77;2.87;;;8.50;1.00;;;;;;6281921;22;20260;-85
2023/12/23 01:48:26;;;;;;;8.70;2.80;;;8.60;1.00;;;;;;6253897;22;20528;-83
2023/12/23 01:50:54;;;;;;;8.47;3.57;;;8.70;1.00;;;;;;6282134;22;20425;-86
2023/12/23 01:53:20;;;;;;;8.20;3.57;;;8.70;1.00;;;;;;6252437;22;20386;-86
2023/12/23 01:55:46;;;;;;;8.50;3.60;;;8.80;1.00;;;;;;6282902;22;20713;-86
2023/12/23 01:58:12;;;;;;;14.40;3.80;;;8.90;1.00;;;;;;6281298;22;20437;-86
2023/12/23 02:00:37;;;;;;;6.20;2.90;;;8.90;1.00;;;;;;6281688;22;20145;-85
2023/12/23 02:03:03;;;;;;;10.80;3.47;;;9.00;1.00;;;;;;6282672;22;20172;-85
2023/12/23 02:05:29;;;;;;;7.00;2.07;;;9.00;1.00;;;;;;6282617;22;20203;-84
2023/12/23 02:07:54;;;;;;;8.27;2.50;;;9.10;1.00;;;;;;6283711;22;20394;-85
2023/12/23 02:10:21;;;;;;;9.83;2.00;;;9.10;1.00;;;;;;6281615;22;20148;-84
2023/12/23 02:13:04;;;;;;;10.20;3.33;;;9.10;1.00;;;;;;6254774;22;20216;-85
2023/12/23 02:15:30;;;;;;;8.87;2.63;;;9.20;1.00;;;;;;6255727;22;20728;-85
2023/12/23 02:18:00;;;;;;;14.83;3.10;;;9.20;1.00;;;;;;6284010;22;20716;-86
2023/12/23 02:20:26;;;;;;;9.00;2.63;;;9.30;1.00;;;;;;6282921;22;20371;-85
2023/12/23 02:22:52;;;;;;;8.67;2.47;;;9.40;1.00;;;;;;6282258;22;20514;-87
2023/12/23 02:25:17;;;;;;;9.50;2.07;;;9.40;1.00;;;;;;6283928;22;20391;-85
2023/12/23 02:27:50;;;;;;;6.13;2.77;;;9.50;1.00;;;;;;6284004;22;20171;-86
2023/12/23 02:30:16;;;;;;;11.43;2.50;;;9.50;1.00;;;;;;6283695;22;20149;-86
2023/12/23 02:32:44;;;;;;;16.43;3.03;;;9.50;1.00;;;;;;6284890;22;20407;-87
2023/12/23 02:35:11;;;;;;;7.90;2.90;;;9.60;1.00;;;;;;6283294;22;20523;-88
2023/12/23 02:37:36;;;;;;;13.43;3.20;;;9.60;1.00;;;;;;6286354;22;20440;-85
2023/12/23 02:40:02;;;;;;;4.63;2.50;;;9.60;1.00;;;;;;6287540;22;20881;-85
2023/12/23 02:42:28;;;;;;;9.90;2.40;;;9.60;1.00;;;;;;6286326;22;20176;-85
2023/12/23 02:44:53;;;;;;;10.03;3.60;;;9.60;1.00;;;;;;6278789;22;20839;-84
2023/12/23 02:47:19;;;;;;;10.13;3.00;;;9.60;1.00;;;;;;6276970;22;20149;-85
2023/12/23 02:49:44;;;;;;;7.80;2.90;;;9.60;1.00;;;;;;6276264;22;20156;-84
2023/12/23 02:52:10;;;;;;;5.93;3.10;;;9.60;1.00;;;;;;6275537;22;20164;-84
2023/12/23 02:54:35;;;;;;;9.60;3.63;;;9.60;1.00;;;;;;6251471;22;20481;-84
2023/12/23 02:57:01;;;;;;;11.97;5.20;;;9.60;1.00;;;;;;6279189;22;20152;-84
2023/12/23 02:59:26;;;;;;;13.00;5.80;;;9.60;1.00;;;;;;6277047;22;20164;-84
2023/12/23 03:01:53;;;;;;;15.17;6.20;;;9.60;1.00;;;;;;6277273;22;20188;-85
2023/12/23 03:04:19;;;;;;;21.00;6.30;;;9.50;1.00;;;;;;6276897;22;20468;-86
2023/12/23 03:06:44;;;;;;;10.80;7.07;;;9.50;1.00;;;;;;6277118;22;20399;-84
2023/12/23 03:09:10;;;;;;;13.57;6.77;;;9.50;1.00;;;;;;6249729;22;20383;-85
2023/12/23 03:11:37;;;;;;;14.13;7.53;;;9.50;1.00;;;;;;6278417;22;20546;-85
2023/12/23 03:14:03;;;;;;;14.17;7.47;;;9.50;6.40;;;;;;6281179;22;20483;-87
2023/12/23 03:16:33;;;;;;;12.30;6.80;;;9.40;11.30;;;;;;6280616;22;20404;-84
2023/12/23 03:19:00;;;;;;;14.30;7.53;;;9.40;17.50;;;;;;6279956;22;20403;-84
2023/12/23 03:21:25;;;;;;;15.30;7.33;;;9.40;20.60;;;;;;6278705;22;20419;-87
2023/12/23 03:23:51;;;;;;;12.10;7.30;;;9.40;22.20;;;;;;6277856;22;20421;-85
2023/12/23 03:26:17;;;;;;;14.07;7.30;;;9.40;24.10;;;;;;6280009;22;20528;-84
2023/12/23 03:28:42;;;;;;;11.63;7.23;;;9.40;24.00;;;;;;6276933;22;20406;-85
2023/12/23 03:31:08;;;;;;;14.40;8.17;;;9.30;23.10;;;;;;6279805;22;20651;-85
2023/12/23 03:33:33;;;;;;;12.40;7.27;;;9.40;19.80;;;;;;6279008;22;20198;-86
2023/12/23 03:35:59;;;;;;;10.50;6.63;;;9.40;16.00;;;;;;6279245;22;20215;-85
2023/12/23 03:38:24;;;;;;;15.93;8.53;;;9.40;13.00;;;;;;6254383;22;20160;-84
2023/12/23 03:40:50;;;;;;;11.07;6.80;;;9.40;7.50;;;;;;6251114;22;20149;-84
2023/12/23 03:43:15;;;;;;;12.97;6.83;;;9.40;9.20;;;;;;6278298;22;20532;-86
2023/12/23 03:45:41;;;;;;;15.93;7.20;;;9.40;7.30;;;;;;6277922;22;20495;-85
2023/12/23 03:48:06;;;;;;;11.87;6.30;;;9.40;3.70;;;;;;6275565;22;20153;-85
2023/12/23 03:50:32;;;;;;;14.63;7.00;;;9.40;1.00;;;;;;6278593;22;20227;-85
2023/12/23 03:52:57;;;;;;;16.27;5.93;;;9.40;1.00;;;;;;6275859;22;20176;-84
2023/12/23 03:55:29;;;;;;;15.20;6.00;;;9.50;1.00;;;;;;6278113;22;20579;-84
2023/12/23 03:57:55;;;;;;;9.23;4.93;;;9.50;1.00;;;;;;6251330;22;20152;-87
2023/12/23 04:00:20;;;;;;;9.47;4.93;;;9.50;1.00;;;;;;6279342;22;20386;-86
2023/12/23 04:02:46;;;;;;;12.53;5.93;;;9.50;1.00;;;;;;6250938;22;20423;-86
2023/12/23 04:05:11;;;;;;;10.53;4.90;;;9.60;1.00;;;;;;6279115;22;20172;-84
2023/12/23 04:07:37;;;;;;;6.77;5.07;;;9.60;1.00;;;;;;6277896;22;20149;-88
2023/12/23 04:10:02;;;;;;;16.47;5.10;;;9.60;1.00;;;;;;6252440;22;20153;-83
2023/12/23 04:12:28;;;;;;;8.80;4.47;;;9.60;1.00;;;;;;6278273;22;20149;-83
2023/12/23 04:14:53;;;;;;;9.23;4.60;;;9.60;1.00;;;;;;6278827;22;20654;-84
2023/12/23 04:17:19;;;;;;;8.73;4.20;;;9.60;1.00;;;;;;6252126;22;20149;-87
2023/12/23 04:19:44;;;;;;;9.20;4.80;;;9.70;1.00;;;;;;6279625;22;20639;-84
2023/12/23 04:22:10;;;;;;;9.63;4.00;;;9.70;1.00;;;;;;6279098;22;20192;-85
2023/12/23 04:24:35;;;;;;;14.30;5.67;;;9.60;1.00;;;;;;6279876;22;20228;-87
2023/12/23 04:27:01;;;;;;;11.67;4.53;;;9.70;1.00;;;;;;6280137;22;20175;-85
2023/12/23 04:29:29;;;;;;;5.73;3.90;;;9.70;1.00;;;;;;6281167;22;20138;-85
2023/12/23 04:31:54;;;;;;;8.03;4.13;;;9.70;1.00;;;;;;6281271;22;20376;-86
2023/12/23 04:34:20;;;;;;;12.80;4.00;;;9.70;1.00;;;;;;6280833;22;20839;-85
2023/12/23 04:36:45;;;;;;;10.73;5.03;;;9.70;1.00;;;;;;6277908;22;20180;-84
2023/12/23 04:39:11;;;;;;;10.33;3.50;;;9.70;1.00;;;;;;6280637;22;20593;-84
2023/12/23 04:41:36;;;;;;;6.57;4.50;;;9.70;1.00;;;;;;6276337;22;20180;-84
2023/12/23 04:44:05;;;;;;;7.10;3.77;;;9.70;1.00;;;;;;6252936;22;20153;-84
2023/12/23 04:46:30;;;;;;;11.50;3.30;;;9.70;1.00;;;;;;6280094;22;20176;-86
2023/12/23 04:48:56;;;;;;;8.80;5.10;;;9.80;1.00;;;;;;6279668;22;20488;-86
2023/12/23 04:51:21;;;;;;;8.83;3.13;;;9.70;1.00;;;;;;6281190;22;20206;-84
2023/12/23 04:53:47;;;;;;;6.27;2.83;;;9.80;1.00;;;;;;6279260;22;20441;-85
2023/12/23 04:56:12;;;;;;;7.03;3.53;;;9.70;1.00;;;;;;6279213;22;20180;-85
2023/12/23 04:58:38;;;;;;;6.50;2.87;;;9.80;1.00;;;;;;6281012;22;20161;-85
2023/12/23 05:01:04;;;;;;;8.53;3.63;;;9.80;1.00;;;;;;6280022;22;20175;-85
2023/12/23 05:03:34;;;;;;;4.73;3.37;;;9.80;1.00;;;;;;6280229;22;20145;-85
2023/12/23 05:06:00;;;;;;;8.90;3.13;;;9.80;1.00;;;;;;6280194;22;20400;-86
2023/12/23 05:08:25;;;;;;;4.63;3.00;;;9.80;1.00;;;;;;6252770;22;20387;-86
2023/12/23 05:10:50;;;;;;;6.57;2.70;;;9.80;1.00;;;;;;6281511;22;20757;-85
2023/12/23 05:13:16;;;;;;;15.30;3.43;;;9.80;1.00;;;;;;6281488;22;20156;-85
2023/12/23 05:15:41;;;;;;;11.10;4.10;;;9.80;1.00;;;;;;6283625;22;20518;-86
2023/12/23 05:18:07;;;;;;;12.53;3.37;;;9.80;1.00;;;;;;6284809;22;20149;-85
2023/12/23 05:20:32;;;;;;;8.50;2.63;;;9.80;1.00;;;;;;6257482;22;20156;-85
2023/12/23 05:22:58;;;;;;;5.73;3.60;;;9.80;1.00;;;;;;6282153;22;20228;-88
2023/12/23 05:25:23;;;;;;;8.07;3.00;;;9.80;1.00;;;;;;6284467;22;20168;-86
2023/12/23 05:27:49;;;;;;;5.77;3.40;;;9.80;1.00;;;;;;6283328;22;20160;-87
2023/12/23 05:30:15;;;;;;;8.50;3.50;;;9.80;1.00;;;;;;6284701;22;20224;-85
2023/12/23 05:32:41;;;;;;;5.57;2.80;;;9.80;1.00;;;;;;6283881;22;20458;-86
2023/12/23 05:35:06;;;;;;;8.23;3.63;;;9.80;1.00;;;;;;6282539;22;20401;-85
2023/12/23 05:37:33;;;;;;;8.13;3.10;;;9.80;1.00;;;;;;6282850;22;20152;-86
2023/12/23 05:39:59;;;;;;;8.17;2.87;;;9.80;1.00;;;;;;6285879;22;20152;-88
2023/12/23 05:42:25;;;;;;;5.40;3.67;;;9.80;1.00;;;;;;6286380;22;20442;-85
2023/12/23 05:44:51;;;;;;;7.90;3.73;;;9.80;1.00;;;;;;6283650;22;20181;-85
2023/12/23 05:47:16;;;;;;;10.87;4.03;;;9.90;1.00;;;;;;6282397;22;20965;-84
2023/12/23 05:49:42;;;;;;;9.87;3.10;;;9.80;1.00;;;;;;6250887;22;20164;-85
2023/12/23 05:52:07;;;;;;;9.70;2.87;;;9.80;1.00;;;;;;6277100;22;20228;-83
2023/12/23 05:54:33;;;;;;;6.77;3.40;;;9.80;1.00;;;;;;6251160;22;20188;-85
2023/12/23 05:56:59;;;;;;;6.57;3.20;;;9.80;1.00;;;;;;6277888;22;20490;-84
2023/12/23 05:59:24;;;;;;;9.70;3.10;;;9.80;1.00;;;;;;6278970;22;20202;-85
2023/12/23 06:01:50;;;;;;;21.23;3.70;;;9.80;1.00;;;;;;6251102;22;20203;-85
2023/12/23 06:04:17;;;;;;;5.77;2.93;;;9.80;1.00;;;;;;6277522;22;20176;-83
2023/12/23 06:06:42;;;;;;;7.20;3.27;;;9.80;1.00;;;;;;6251064;22;20177;-85
2023/12/23 06:09:08;;;;;;;7.67;3.63;;;9.80;1.00;;;;;;6250611;22;20379;-84
2023/12/23 06:11:34;;;;;;;7.33;3.70;;;9.80;1.00;;;;;;6278922;22;20153;-84
2023/12/23 06:14:00;;;;;;;9.67;3.53;;;9.80;1.00;;;;;;6278667;22;20160;-84
2023/12/23 06:16:26;;;;;;;8.10;3.43;;;9.80;1.00;;;;;;6250841;22;20816;-84
2023/12/23 06:18:51;;;;;;;6.60;3.37;;;9.80;1.00;;;;;;6276777;22;20153;-85
2023/12/23 06:21:17;;;;;;;6.70;3.10;;;9.80;1.00;;;;;;6275644;22;20608;-84
2023/12/23 06:23:42;;;;;;;13.17;4.20;;;9.80;1.00;;;;;;6276675;22;20149;-84
2023/12/23 06:26:10;;;;;;;6.80;4.13;;;9.80;1.00;;;;;;6277091;22;20662;-84
2023/12/23 06:28:36;;;;;;;5.70;3.70;;;9.80;1.00;;;;;;6277933;22;20512;-84
2023/12/23 06:31:01;;;;;;;8.70;3.43;;;9.80;1.00;;;;;;6278193;22;20387;-84
2023/12/23 06:33:27;;;;;;;12.70;3.67;;;9.80;1.00;;;;;;6277271;22;20149;-84
2023/12/23 06:35:53;;;;;;;11.40;3.90;;;9.80;1.00;;;;;;6277551;22;20562;-84
2023/12/23 06:38:18;;;;;;;4.60;3.53;;;9.80;1.00;;;;;;6277322;22;20156;-85
2023/12/23 06:40:44;;;;;;;9.30;3.43;;;9.70;1.00;;;;;;6278550;22;20153;-84
2023/12/23 06:43:09;;;;;;;5.47;2.87;;;9.80;1.00;;;;;;6277886;22;20707;-84
2023/12/23 06:45:35;;;;;;;6.43;3.40;;;9.80;1.00;;;;;;6277432;22;20218;-84
2023/12/23 06:48:00;;;;;;;11.10;3.10;;;9.80;1.00;;;;;;6279608;22;20644;-86
2023/12/23 06:50:26;;;;;;;7.47;3.50;;;9.70;1.00;;;;;;6281095;22;20153;-84
2023/12/23 06:52:51;;;;;;;7.87;3.33;;;9.80;1.00;;;;;;6279536;22;20501;-82
2023/12/23 06:55:17;;;;;;;8.90;3.50;;;9.70;1.00;;;;;;6280143;22;20218;-85
2023/12/23 06:57:43;;;;;;;8.73;4.00;;;9.70;1.00;;;;;;6278939;22;20157;-84
2023/12/23 07:00:08;;;;;;;7.37;4.23;;;9.70;1.00;;;;;;6277091;22;20153;-84
2023/12/23 07:02:34;;;;;;;9.50;3.80;;;9.70;1.00;;;;;;6279295;22;20183;-85
2023/12/23 07:05:00;;;;;;;9.00;4.37;;;9.70;1.00;;;;;;6278604;22;20391;-84
2023/12/23 07:07:25;;;;;;;12.67;5.07;;;9.70;1.00;;;;;;6278310;22;20206;-84
2023/12/23 07:09:51;;;;;;;10.07;4.83;;;9.70;1.00;;;;;;6279464;22;20159;-83
2023/12/23 07:12:16;;;;;;;9.60;4.30;;;9.70;1.00;;;;;;6276084;22;20160;-85
2023/12/23 07:14:42;;;;;;;9.37;5.27;;;9.70;1.00;;;;;;6250483;22;20152;-84
2023/12/23 07:17:07;;;;;;;8.53;4.27;;;9.70;1.00;;;;;;6276820;22;20180;-83
2023/12/23 07:19:33;;;;;;;15.50;4.97;;;9.60;1.00;;;;;;6277663;22;20156;-82
2023/12/23 07:21:58;;;;;;;12.67;4.20;;;9.70;1.00;;;;;;6276471;22;20238;-85
2023/12/23 07:24:24;;;;;;;7.50;4.63;;;9.60;1.00;;;;;;6276545;22;20157;-83
2023/12/23 07:26:49;;;;;;;11.53;4.57;;;9.60;1.00;;;;;;6276137;22;20195;-83
2023/12/23 07:29:17;;;;;;;6.47;4.60;;;9.60;1.00;;;;;;6248288;22;20187;-85
2023/12/23 07:31:42;;;;;;;19.67;6.03;;;9.60;1.00;;;;;;6278123;22;20501;-83
2023/12/23 07:34:08;;;;;;;15.73;5.97;;;9.70;1.00;;;;;;6276046;22;20396;-83
2023/12/23 07:36:34;;;;;;;12.90;4.80;;;9.70;1.00;;;;;;6276252;22;20202;-83
2023/12/23 07:38:59;;;;;;;18.83;5.00;;;9.70;1.00;;;;;;6277658;22;20184;-83
2023/12/23 07:41:25;;;;;;;7.23;5.00;;;9.70;1.00;;;;;;6249423;22;20200;-82
2023/12/23 07:43:50;;;;;;;10.23;4.80;;;9.70;1.00;;;;;;6276502;22;20160;-82
2023/12/23 07:46:16;;;;;;;16.03;5.17;;;9.70;1.00;;;;;;6278435;22;20173;-86
2023/12/23 07:48:41;;;;;;;10.30;5.50;;;9.70;1.00;;;;;;6279421;22;20195;-83
2023/12/23 07:51:08;;;;;;;9.10;5.27;;;9.70;1.00;;;;;;6278126;22;20149;-83
2023/12/23 07:53:33;;;;;;;11.97;5.23;;;9.60;1.00;;;;;;6248526;22;20606;-83
2023/12/23 07:55:59;;;;;;;7.70;4.93;;;9.70;1.00;;;;;;6250764;22;20399;-83
2023/12/23 07:58:25;;;;;;;18.60;6.30;;;9.60;1.00;;;;;;6275645;22;20153;-83
2023/12/23 08:00:50;;;;;;;9.60;5.00;;;9.70;1.00;;;;;;6247055;22;20160;-81
2023/12/23 08:03:16;;;;;;;16.77;5.17;;;9.60;1.00;;;;;;6277069;22;20191;-83
2023/12/23 08:05:41;;;;;;;13.87;5.27;;;9.60;1.00;;;;;;6275594;22;20172;-83
2023/12/23 08:08:09;;;;;;;10.90;5.43;;;9.60;1.00;;;;;;6275735;22;20523;-84
2023/12/23 08:10:35;;;;;;;8.73;5.13;;;9.70;1.00;;;;;;6276415;22;20151;-84
2023/12/23 08:13:01;;;;;;;15.13;4.83;;;9.70;1.00;;;;;;6248475;22;20387;-82
2023/12/23 08:15:27;;;;;;;13.67;5.10;;;9.70;1.00;;;;;;6249695;22;20506;-84
2023/12/23 08:17:52;;;;;;;12.93;4.83;;;9.70;1.00;;;;;;6275260;22;20382;-83
2023/12/23 08:20:18;;;;;;;10.70;4.40;;;9.70;1.00;;;;;;6275954;22;20160;-83
2023/12/23 08:22:43;;;;;;;16.83;4.17;;;9.80;1.00;;;;;;6275913;22;20187;-83
2023/12/23 08:25:09;;;;;;;10.27;3.97;;;9.80;1.00;;;;;;6278390;22;20188;-83
2023/12/23 08:27:34;;;;;;;11.53;4.23;;;9.90;1.00;;;;;;6278152;22;20164;-84
2023/12/23 08:30:00;;;;;;;9.00;3.83;;;9.90;1.00;;;;;;6275819;22;20157;-83
2023/12/23 08:32:25;;;;;;;15.60;5.10;;;10.00;1.00;;;;;;6276579;22;20153;-86
2023/12/23 08:34:51;;;;;;;8.60;3.83;;;10.00;1.00;;;;;;6249974;22;20259;-84
2023/12/23 08:37:16;;;;;;;14.07;4.27;;;10.10;1.00;;;;;;6276754;22;20660;-85
2023/12/23 08:39:42;;;;;;;9.33;4.40;;;10.10;1.00;;;;;;6277134;22;20152;-86
2023/12/23 08:42:07;;;;;;;8.20;4.27;;;10.10;1.00;;;;;;6277699;22;20185;-85
2023/12/23 08:44:33;;;;;;;9.20;4.40;;;10.20;1.00;;;;;;6278118;22;20159;-85
2023/12/23 08:46:59;;;;;;;11.13;5.13;;;10.20;1.00;;;;;;6277780;22;20171;-85
2023/12/23 08:49:24;;;;;;;12.77;4.17;;;10.20;1.00;;;;;;6278807;22;20870;-85
2023/12/23 08:51:50;;;;;;;12.07;4.00;;;10.30;1.00;;;;;;6279145;22;20156;-85
2023/12/23 08:54:15;;;;;;;10.13;3.93;;;10.30;1.00;;;;;;6276351;22;20152;-86
2023/12/23 08:56:41;;;;;;;12.17;4.40;;;10.30;1.00;;;;;;6278503;22;20251;-85
2023/12/23 08:59:09;;;;;;;14.13;4.33;;;10.30;1.00;;;;;;6280350;22;20541;-86
2023/12/23 09:01:34;;;;;;;7.23;3.57;;;10.30;1.00;;;;;;6280372;22;20323;-85
2023/12/23 09:04:00;;;;;;;5.90;3.13;;;10.40;99.90;;;;;;6278536;22;20465;-85
2023/12/23 09:06:25;;;;;;;9.10;3.50;;;10.40;99.90;;;;;;6277713;22;20624;-86
2023/12/23 09:08:53;;;;;;;11.63;3.60;;;10.40;99.90;;;;;;6279159;22;20203;-84
2023/12/23 09:11:18;;;;;;;10.37;4.50;;;10.40;99.90;;;;;;6279337;22;20152;-85
2023/12/23 09:13:44;;;;;;;12.70;3.37;;;10.40;99.90;;;;;;6277860;22;20852;-86
2023/12/23 09:16:09;;;;;;;6.73;3.30;;;10.40;99.90;;;;;;6279797;22;20200;-83
2023/12/23 09:18:35;;;;;;;6.60;3.17;;;10.40;99.90;;;;;;6251671;22;20156;-85
2023/12/23 09:21:00;;;;;;;6.47;3.10;;;10.50;99.90;;;;;;6278667;22;20246;-84
2023/12/23 09:23:26;;;;;;;7.70;2.83;;;10.40;99.90;;;;;;6278350;22;20235;-84
2023/12/23 09:25:51;;;;;;;7.50;3.00;;;10.40;99.90;;;;;;6251555;22;20175;-85
2023/12/23 09:28:17;;;;;;;8.13;2.60;;;10.50;99.90;;;;;;6279002;22;20187;-85
2023/12/23 09:30:43;;;;;;;9.47;3.33;;;10.50;99.90;;;;;;6278627;22;20214;-84
2023/12/23 09:33:08;;;;;;;9.13;3.87;;;10.60;99.90;;;;;;6279531;22;20379;-83
2023/12/23 09:35:34;;;;;;;9.13;3.40;;;10.60;99.90;;;;;;6250814;22;20247;-85
2023/12/23 09:37:59;;;;;;;11.73;3.00;;;10.70;99.90;;;;;;6270036;22;20205;-86
2023/12/23 09:40:25;;;;;;;12.33;4.30;;;10.70;99.90;;;;;;6252363;22;20534;-83
2023/12/23 09:42:51;;;;;;;8.30;3.70;;;10.70;99.90;;;;;;6276693;22;20534;-84
2023/12/23 09:45:18;;;;;;;10.80;3.73;;;10.60;1.00;;;;;;6253109;23;20146;-85
2023/12/23 09:47:44;;;;;;;10.67;4.90;;;10.60;1.00;;;;;;6253949;22;20165;-83
2023/12/23 09:50:10;;;;;;;12.50;4.37;;;10.50;1.00;;;;;;6279561;22;20376;-84
2023/12/23 09:52:36;;;;;;;10.97;3.90;;;10.40;1.00;;;;;;6255860;22;20384;-84
2023/12/23 09:55:05;;;;;;;10.53;3.80;;;10.40;1.00;;;;;;6254305;22;20161;-84
2023/12/23 09:57:31;;;;;;;10.90;4.00;;;10.30;1.00;;;;;;6275004;22;20404;-84
2023/12/23 09:59:58;;;;;;;9.10;3.80;;;10.30;1.00;;;;;;6255913;22;20377;-85
2023/12/23 10:02:23;;;;;;;9.60;4.50;;;10.30;1.00;;;;;;6254774;22;20443;-83
2023/12/23 10:04:49;;;;;;;10.87;3.90;;;10.30;1.00;;;;;;6249048;22;20372;-83
2023/12/23 10:07:15;;;;;;;6.20;3.43;;;10.40;1.00;;;;;;6248013;22;20237;-84
2023/12/23 10:09:41;;;;;;;7.53;4.30;;;10.40;1.00;;;;;;6246868;22;20160;-83
2023/12/23 10:12:07;;;;;;;10.50;3.90;;;10.30;1.00;;;;;;6246519;22;20456;-84
2023/12/23 10:14:32;;;;;;;8.90;5.40;;;10.30;1.00;;;;;;6247108;22;20165;-83
2023/12/23 10:16:58;;;;;;;8.13;4.07;;;10.20;1.00;;;;;;6247149;22;20404;-81
2023/12/23 10:19:24;;;;;;;7.37;4.20;;;10.20;1.00;;;;;;6246526;22;20157;-84
2023/12/23 10:21:50;;;;;;;11.07;4.90;;;10.20;1.00;;;;;;6246798;22;20207;-83
2023/12/23 10:24:16;;;;;;;12.20;3.70;;;10.20;1.00;;;;;;6244281;22;20844;-84
2023/12/23 10:26:42;;;;;;;8.53;4.00;;;10.20;1.00;;;;;;6246929;22;20383;-82
2023/12/23 10:29:09;;;;;;;8.30;4.00;;;10.30;1.00;;;;;;6243437;23;20667;-82
2023/12/23 10:31:36;;;;;;;7.50;3.60;;;10.20;1.00;;;;;;6244037;22;20465;-83
2023/12/23 10:34:11;;;;;;;8.00;3.97;;;10.20;1.00;;;;;;6246118;22;20372;-83
2023/12/23 10:36:40;;;;;;;6.00;3.17;;;10.10;1.00;;;;;;6246892;22;20418;-83
2023/12/23 10:39:13;;;;;;;8.10;3.43;;;10.10;1.00;;;;;;6250051;22;20388;-83
2023/12/23 10:42:02;;;;;;;7.27;3.47;;;10.10;1.00;;;;;;6249746;22;20455;-84
2023/12/23 10:44:30;;;;;;;11.70;3.63;;;10.10;1.00;;;;;;6274305;22;20430;-81
2023/12/23 10:46:57;;;;;;;6.10;3.27;;;10.10;1.00;;;;;;6276904;22;20372;-84
2023/12/23 10:49:24;;;;;;;4.90;3.30;;;10.10;1.00;;;;;;6279495;22;20372;-85
2023/12/23 10:51:50;;;;;;;12.30;3.80;;;10.10;1.00;;;;;;6284408;22;20379;-84
2023/12/23 10:54:17;;;;;;;9.40;3.97;;;10.20;1.00;;;;;;6283909;22;20398;-84
2023/12/23 10:56:45;;;;;;;6.73;3.37;;;10.20;1.00;;;;;;6285057;22;20383;-84
2023/12/23 10:59:10;;;;;;;5.03;2.63;;;10.20;1.00;;;;;;6284505;22;20383;-85
2023/12/23 11:01:39;;;;;;;12.03;3.97;;;10.20;1.00;;;;;;6283719;22;20422;-84
2023/12/23 11:04:05;;;;;;;14.10;4.07;;;10.20;1.00;;;;;;6257160;22;20235;-84
2023/12/23 11:06:35;;;;;;;6.33;3.93;;;10.30;1.00;;;;;;6283992;22;20383;-84
2023/12/23 11:09:02;;;;;;;10.77;4.00;;;10.40;1.00;;;;;;6282485;22;20449;-85
2023/12/23 11:11:29;;;;;;;6.20;3.13;;;10.50;1.00;;;;;;6257166;22;20382;-83
2023/12/23 11:13:55;;;;;;;9.93;3.40;;;10.50;1.00;;;;;;6283961;22;20375;-85
2023/12/23 11:16:20;;;;;;;6.10;2.97;;;10.50;1.00;;;;;;6282481;22;20458;-85
2023/12/23 11:18:46;;;;;;;5.47;2.70;;;10.50;1.00;;;;;;6283019;22;20175;-84
2023/12/23 11:21:18;;;;;;;5.60;2.30;;;10.50;1.00;;;;;;6256127;22;20220;-85
2023/12/23 11:23:45;;;;;;;8.40;3.03;;;10.60;99.90;;;;;;6283006;22;20613;-84
2023/12/23 11:26:52;;;;;;;7.73;3.00;;;10.70;99.90;;;;;;6284274;22;20467;-85
2023/12/23 11:29:20;;;;;;;5.40;2.67;;;10.80;99.90;;;;;;6160081;23;20395;-83
2023/12/23 11:31:46;;;;;;;7.40;2.43;;;10.80;99.90;;;;;;6264191;22;20390;-83
2023/12/23 11:34:16;;;;;;;7.80;2.57;;;10.90;99.90;;;;;;6255001;22;20387;-85
2023/12/23 11:36:45;;;;;;;5.17;2.47;;;10.90;99.90;;;;;;6278967;22;20153;-84
2023/12/23 11:39:12;;;;;;;5.10;2.30;;;10.90;9.30;;;;;;6250677;22;20796;-84
2023/12/23 11:41:40;;;;;;;6.00;2.50;;;10.90;1.00;;;;;;6254011;22;20415;-84
2023/12/23 11:44:06;;;;;;;5.10;2.70;;;10.90;1.00;;;;;;6281318;22;20372;-84
2023/12/23 11:46:34;;;;;;;4.47;2.50;;;10.90;1.00;;;;;;6282186;22;20383;-85
2023/12/23 11:49:00;;;;;;;2.80;2.20;;;10.90;1.00;;;;;;6281106;22;20506;-83
2023/12/23 11:51:26;;;;;;;9.10;2.97;;;11.00;1.00;;;;;;6279965;22;20372;-84
2023/12/23 11:53:53;;;;;;;5.17;2.83;;;11.00;99.90;;;;;;6253633;22;20414;-84
2023/12/23 11:56:19;;;;;;;10.20;2.53;;;11.00;99.90;;;;;;6279877;22;20145;-84
2023/12/23 11:58:44;;;;;;;5.50;2.70;;;11.10;99.90;;;;;;6281118;22;20387;-84
2023/12/23 12:01:10;;;;;;;7.40;3.00;;;11.10;99.90;;;;;;6280596;22;20148;-82
2023/12/23 12:03:35;;;;;;;2.80;1.70;;;11.10;1.00;;;;;;6254624;22;20212;-83
2023/12/23 12:06:02;;;;;;;4.50;2.13;;;11.10;1.00;;;;;;6282505;22;20172;-84
2023/12/23 12:08:28;;;;;;;4.90;1.77;;;11.10;1.00;;;;;;6281875;22;20192;-83
2023/12/23 12:10:56;;;;;;;11.50;2.57;;;11.10;10.40;;;;;;6279250;22;20375;-83
2023/12/23 12:13:26;;;;;;;6.90;1.87;;;11.10;99.90;;;;;;6253422;22;20391;-85
2023/12/23 12:15:52;;;;;;;9.43;2.37;;;11.20;18.20;;;;;;6252405;22;20847;-82
2023/12/23 12:18:18;;;;;;;10.73;2.07;;;11.20;1.00;;;;;;6282070;22;20406;-85
2023/12/23 12:20:44;;;;;;;6.13;1.90;;;11.20;99.90;;;;;;6285183;22;20389;-85
2023/12/23 12:23:12;;;;;;;7.00;2.20;;;11.30;1.00;;;;;;6282306;22;20482;-85
2023/12/23 12:25:38;;;;;;;4.37;1.77;;;11.30;99.90;;;;;;6256077;22;20555;-85
2023/12/23 12:28:05;;;;;;;6.33;2.00;;;11.30;46.30;;;;;;6283037;22;20399;-84
2023/12/23 12:30:31;;;;;;;5.07;1.87;;;11.30;1.00;;;;;;6281772;22;20157;-83
2023/12/23 12:32:58;;;;;;;4.63;1.53;;;11.30;1.00;;;;;;6283218;22;20847;-85
2023/12/23 12:35:23;;;;;;;3.80;1.63;;;11.40;1.00;;;;;;6282887;22;20232;-85
2023/12/23 12:37:49;;;;;;;3.20;1.70;;;11.40;99.90;;;;;;6280875;22;20410;-84
2023/12/23 12:40:16;;;;;;;4.90;1.77;;;11.50;27.60;;;;;;6282174;22;20161;-85
2023/12/23 12:42:47;;;;;;;8.63;1.70;;;11.50;1.00;;;;;;6254955;22;20499;-84
2023/12/23 12:45:14;;;;;;;2.33;1.23;;;11.60;1.00;;;;;;6284479;22;20368;-84
2023/12/23 12:47:39;;;;;;;6.10;1.53;;;11.60;99.90;;;;;;6284866;22;20394;-84
2023/12/23 12:50:06;;;;;;;6.70;1.50;;;11.60;16.50;;;;;;6283835;22;20372;-85
2023/12/23 12:52:32;;;;;;;5.10;1.63;;;11.70;1.00;;;;;;6284154;22;20153;-85